Time;durP1;ratioP1;P1;durP2;ratioP2;P2;SDS_P1;SDS_P2;PMS_P1;PMS_P2;Temp;Humidity;BMP_temperature;BMP_pressure;BME280_temperature;BME280_humidity;BME280_pressure;Samples;Min_cycle;Max_cycle;Signal;HPM_P1;HPM_P2
2022/08/11 00:00:20;;;;;;;9.23;2.50;;;;;;;15.14;100.00;156326.28;4881384;29;20036;-76
2022/08/11 00:02:50;;;;;;;9.13;2.67;;;;;;;15.14;100.00;156326.28;4901695;29;20047;-77
2022/08/11 00:05:19;;;;;;;6.28;2.33;;;;;;;15.10;100.00;156315.94;4897322;29;20031;-77
2022/08/11 00:07:49;;;;;;;5.20;2.33;;;;;;;15.09;100.00;156312.13;4927588;29;20047;-77
2022/08/11 00:10:20;;;;;;;5.70;2.20;;;;;;;14.99;100.00;156288.97;4912851;29;20392;-77
2022/08/11 00:12:52;;;;;;;9.07;2.27;;;;;;;15.02;100.00;156295.38;4929074;29;20040;-76
2022/08/11 00:15:18;;;;;;;9.73;2.65;;;;;;;15.00;100.00;156290.25;4905417;29;20286;-77
2022/08/11 00:17:44;;;;;;;10.60;2.75;;;;;;;14.97;100.00;156282.50;4913436;29;20031;-77
2022/08/11 00:20:13;;;;;;;5.47;2.30;;;;;;;14.95;100.00;156278.63;4896690;29;20111;-75
2022/08/11 00:22:41;;;;;;;7.30;2.00;;;;;;;14.88;100.00;156260.66;4911359;29;20048;-77
2022/08/11 00:25:13;;;;;;;13.82;2.40;;;;;;;14.88;100.00;156260.66;4911719;29;20095;-78
2022/08/11 00:27:40;;;;;;;14.97;2.87;;;;;;;14.83;100.00;156247.78;4898953;29;20047;-77
2022/08/11 00:30:07;;;;;;;8.15;2.55;;;;;;;14.81;100.00;156242.66;4905154;29;20293;-77
2022/08/11 00:32:35;;;;;;;8.70;2.70;;;;;;;14.77;100.00;156233.63;4896520;29;20391;-78
2022/08/11 00:35:02;;;;;;;4.80;3.05;;;;;;;14.74;100.00;156225.91;4913731;29;20483;-77
2022/08/11 00:37:29;;;;;;;8.48;2.80;;;;;;;14.67;100.00;156207.88;4891193;29;20029;-76
2022/08/11 00:39:56;;;;;;;4.78;2.60;;;;;;;14.65;100.00;156202.75;4895515;29;20082;-79
2022/08/11 00:42:52;;;;;;;10.98;2.78;;;;;;;14.57;100.00;156182.19;4896134;29;20040;-79
2022/08/11 00:45:30;;;;;;;10.63;2.92;;;;;;;14.56;100.00;156179.53;4911993;29;20040;-77
2022/08/11 00:48:18;;;;;;;8.75;2.65;;;;;;;14.45;100.00;156151.25;4928060;29;20040;-77
2022/08/11 00:51:24;;;;;;;4.82;2.47;;;;;;;14.40;100.00;156139.69;4912024;29;20414;-78
2022/08/11 00:54:17;;;;;;;9.55;2.72;;;;;;;14.37;100.00;156133.28;4907335;29;20079;-77
2022/08/11 00:57:14;;;;;;;7.45;2.60;;;;;;;14.35;100.00;156128.16;4893321;29;20040;-77
2022/08/11 01:00:03;;;;;;;4.68;2.90;;;;;;;14.21;100.00;156092.13;4904691;29;20089;-75
2022/08/11 01:02:58;;;;;;;8.00;2.67;;;;;;;14.17;100.00;156083.13;4908468;29;20032;-76
2022/08/11 01:06:03;;;;;;;4.78;2.80;;;;;;;14.07;100.00;156056.09;4895881;29;20052;-78
2022/08/11 01:08:45;;;;;;;6.32;2.90;;;;;;;14.02;100.00;156045.81;4907914;29;20035;-77
2022/08/11 01:11:55;;;;;;;4.68;2.63;;;;;;;13.96;100.00;156029.13;4925570;29;20076;-77
2022/08/11 01:14:47;;;;;;;6.28;2.70;;;;;;;13.91;100.00;156016.25;4911850;29;20032;-77
2022/08/11 01:17:39;;;;;;;9.57;2.85;;;;;;;13.85;100.00;156000.84;4911711;29;20028;-77
2022/08/11 01:20:07;;;;;;;5.65;2.88;;;;;;;13.82;100.00;155994.41;4885698;29;20039;-77
2022/08/11 01:23:02;;;;;;;3.72;2.53;;;;;;;13.79;100.00;155987.97;4927068;29;20118;-76
2022/08/11 01:25:49;;;;;;;6.43;2.80;;;;;;;13.79;100.00;155987.97;4896173;29;20091;-77
2022/08/11 01:29:03;;;;;;;5.70;2.97;;;;;;;13.80;100.00;155989.25;4924095;29;20044;-76
2022/08/11 01:31:46;;;;;;;5.15;2.80;;;;;;;13.78;100.00;155985.41;4898540;29;20040;-77
2022/08/11 01:34:49;;;;;;;4.78;2.78;;;;;;;13.77;100.00;155981.56;4925316;29;20494;-76
2022/08/11 01:37:44;;;;;;;12.30;4.35;;;;;;;13.71;100.00;155967.44;4920238;29;20028;-76
2022/08/11 01:40:19;;;;;;;6.82;2.70;;;;;;;13.70;100.00;155964.84;4908786;29;20038;-77
2022/08/11 01:46:15;;;;;;;8.43;3.05;;;;;;;13.57;100.00;155932.69;4895924;29;20036;-77
2022/08/11 01:48:47;;;;;;;6.20;2.88;;;;;;;13.58;100.00;155933.97;4910131;29;20032;-76
2022/08/11 01:51:30;;;;;;;6.68;3.10;;;;;;;13.55;100.00;155927.56;4910496;29;20040;-77
2022/08/11 01:54:04;;;;;;;7.03;3.00;;;;;;;13.49;100.00;155910.88;4904221;29;20036;-75
2022/08/11 01:56:56;;;;;;;6.38;3.10;;;;;;;13.46;100.00;155904.44;4892141;29;20032;-76
2022/08/11 01:59:28;;;;;;;6.65;3.25;;;;;;;13.46;100.00;155904.44;4898784;29;20040;-76
2022/08/11 02:02:46;;;;;;;11.00;3.30;;;;;;;13.42;100.00;155894.16;4895785;29;20111;-77
2022/08/11 02:05:19;;;;;;;8.65;3.33;;;;;;;13.37;100.00;155882.59;4911699;29;20056;-78
2022/08/11 02:08:07;;;;;;;5.28;3.25;;;;;;;13.31;100.00;155867.16;4910429;29;20779;-77
2022/08/11 02:13:39;;;;;;;8.18;3.20;;;;;;;13.31;100.00;155867.16;4911329;29;20039;-77
2022/08/11 02:16:20;;;;;;;8.38;3.50;;;;;;;13.34;100.00;155873.59;4895666;29;20063;-77
2022/08/11 02:25:05;;;;;;;11.40;3.08;;;;;;;13.27;100.00;155855.56;4845899;29;20044;-77
2022/08/11 02:27:46;;;;;;;8.52;3.47;;;;;;;13.23;100.00;155847.81;4895336;29;20052;-77
2022/08/11 02:30:23;;;;;;;6.47;3.03;;;;;;;13.20;100.00;155840.16;4907587;29;20470;-76
2022/08/11 02:33:24;;;;;;;6.80;3.15;;;;;;;13.14;100.00;155823.41;4907488;29;20048;-78
2022/08/11 02:36:05;;;;;;;9.70;3.10;;;;;;;13.12;100.00;155819.56;4906383;29;20487;-77
2022/08/11 02:38:46;;;;;;;7.00;3.20;;;;;;;13.10;100.00;155814.41;4903545;29;20408;-77
2022/08/11 02:44:46;;;;;;;8.27;3.22;;;;;;;13.04;100.00;155799.00;4912099;29;20152;-78
2022/08/11 02:49:52;;;;;;;12.55;3.20;;;;;;;13.03;100.00;155797.75;4892693;29;20414;-77
2022/08/11 02:51:11;;;;;;;6.95;3.15;;;;;;;13.05;100.00;155802.88;4905647;29;20051;-79
2022/08/11 02:53:45;;;;;;;13.30;3.58;;;;;;;13.07;100.00;155805.41;4893885;29;20580;-77
2022/08/11 02:56:30;;;;;;;6.47;3.38;;;;;;;13.04;100.00;155799.00;4894948;29;20051;-76
2022/08/11 03:02:13;;;;;;;9.50;3.60;;;;;;;13.08;100.00;155809.28;4916500;29;20582;-77
2022/08/11 03:05:06;;;;;;;8.02;3.28;;;;;;;13.08;100.00;155809.28;4928564;29;20040;-77
2022/08/11 03:07:46;;;;;;;7.18;3.30;;;;;;;13.01;100.00;155791.28;4914476;29;20032;-77
2022/08/11 03:10:22;;;;;;;4.95;3.00;;;;;;;13.04;100.00;155799.00;4901817;29;20071;-77
2022/08/11 03:16:45;;;;;;;9.10;3.47;;;;;;;13.03;100.00;155797.75;4892182;29;20042;-77
2022/08/11 03:19:20;;;;;;;7.88;3.53;;;;;;;12.98;100.00;155784.88;4897350;29;20474;-77
2022/08/11 03:22:07;;;;;;;5.97;3.65;;;;;;;12.97;100.00;155782.28;4915070;29;20652;-78
2022/08/11 03:24:52;;;;;;;7.10;3.80;;;;;;;13.00;100.00;155790.00;4888905;29;20493;-77
2022/08/11 03:27:31;;;;;;;8.32;4.20;;;;;;;12.92;100.00;155769.47;4915282;29;20063;-77
2022/08/11 03:30:24;;;;;;;10.40;3.95;;;;;;;12.89;100.00;155760.47;4903318;29;20048;-77
2022/08/11 03:36:12;;;;;;;5.60;3.90;;;;;;;12.77;100.00;155732.22;4893872;29;20042;-77
2022/08/11 03:39:02;;;;;;;6.88;3.75;;;;;;;12.79;100.00;155737.34;4907712;29;20081;-77
2022/08/11 03:41:46;;;;;;;7.18;3.78;;;;;;;12.77;100.00;155730.88;4911281;29;20080;-77
2022/08/11 03:44:34;;;;;;;7.78;3.88;;;;;;;12.76;100.00;155729.63;4900257;29;20040;-77
2022/08/11 03:47:32;;;;;;;7.68;3.88;;;;;;;12.78;100.00;155733.47;4913359;29;20032;-76
2022/08/11 03:50:26;;;;;;;5.70;3.75;;;;;;;12.71;100.00;155715.50;4912215;29;20121;-77
2022/08/11 03:53:19;;;;;;;8.05;3.53;;;;;;;12.73;100.00;155720.63;4915544;29;20024;-77
2022/08/11 03:56:36;;;;;;;8.13;3.53;;;;;;;12.66;100.00;155703.94;4895345;29;20095;-78
2022/08/11 03:59:38;;;;;;;7.75;3.97;;;;;;;12.66;100.00;155705.22;4875871;29;20032;-78
2022/08/11 04:02:41;;;;;;;10.93;3.95;;;;;;;12.62;100.00;155693.63;4895767;29;20036;-76
2022/08/11 04:05:33;;;;;;;;;;;;;;;12.56;100.00;155679.50;4907662;29;20039;-76
2022/08/11 04:08:18;;;;;;;5.38;4.10;;;;;;;12.55;100.00;155675.69;4912559;29;19922;-77
2022/08/11 04:11:18;;;;;;;8.07;4.18;;;;;;;12.54;100.00;155674.38;4910673;29;20037;-78
2022/08/11 04:17:31;;;;;;;6.18;3.90;;;;;;;12.52;100.00;155669.25;4906245;29;20091;-78
2022/08/11 04:20:41;;;;;;;6.72;3.85;;;;;;;12.53;100.00;155671.81;4908147;29;20044;-76
2022/08/11 04:23:23;;;;;;;8.02;3.70;;;;;;;12.57;100.00;155682.09;4906955;29;20507;-77
2022/08/11 04:26:21;;;;;;;8.00;4.28;;;;;;;12.58;100.00;155683.38;4929192;29;20051;-76
2022/08/11 04:29:10;;;;;;;9.50;4.28;;;;;;;12.60;100.00;155688.50;4895455;29;20037;-76
2022/08/11 04:32:08;;;;;;;9.75;3.90;;;;;;;12.58;100.00;155683.38;4910221;29;20141;-76
2022/08/11 04:34:52;;;;;;;9.27;4.35;;;;;;;12.72;100.00;155719.34;4906734;29;20518;-76
2022/08/11 04:37:47;;;;;;;8.23;4.45;;;;;;;12.82;100.00;155745.03;4896790;29;20044;-78
2022/08/11 04:40:38;;;;;;;11.02;4.15;;;;;;;12.94;100.00;155774.63;4912931;29;20032;-78
2022/08/11 04:43:35;;;;;;;11.38;4.50;;;;;;;13.03;100.00;155796.41;4909742;29;20040;-77
2022/08/11 04:46:25;;;;;;;8.80;3.90;;;;;;;13.13;100.00;155820.81;4913120;29;20044;-77
2022/08/11 05:02:17;;;;;;;9.43;4.32;;;;;;;13.68;100.00;155958.44;4928369;29;20043;-76
2022/08/11 05:08:19;;;;;;;10.93;4.00;;;;;;;13.99;100.00;156036.81;4895268;29;20044;-78
2022/08/11 05:10:45;;;;;;;9.73;4.53;;;;;;;14.16;100.00;156079.25;4907927;29;20044;-76
2022/08/11 05:35:54;;;;;;;13.02;4.45;;;;;;;15.43;100.00;156398.31;4905004;29;20645;-77
2022/08/11 05:57:55;;;;;;;6.40;3.60;;;;;;;16.44;100.00;156650.63;4927051;29;20044;-78
2022/08/11 06:00:23;;;;;;;9.32;3.55;;;;;;;16.52;100.00;156671.25;4911370;29;20522;-77
2022/08/11 06:03:02;;;;;;;8.05;3.40;;;;;;;16.58;100.00;156685.41;4881099;29;20466;-77
2022/08/11 06:05:34;;;;;;;14.65;4.03;;;;;;;16.73;100.00;156725.31;4896666;29;20044;-78
2022/08/11 06:08:00;;;;;;;11.05;3.28;;;;;;;16.93;100.00;156775.63;4892713;29;20036;-76
2022/08/11 06:10:33;;;;;;;12.02;3.50;;;;;;;17.05;100.00;156805.22;4893173;29;20044;-78
2022/08/11 06:12:59;;;;;;;13.52;3.85;;;;;;;17.09;100.00;156814.25;4901439;29;20075;-78
2022/08/11 06:15:26;;;;;;;11.43;3.40;;;;;;;17.31;100.00;156870.91;4888667;29;20474;-79
2022/08/11 06:17:54;;;;;;;8.52;3.17;;;;;;;17.35;100.00;156879.94;4896196;29;20102;-77
2022/08/11 06:20:21;;;;;;;8.70;2.80;;;;;;;17.51;100.00;156919.84;4904675;29;20032;-78
2022/08/11 06:23:04;;;;;;;6.03;2.78;;;;;;;17.68;100.00;156962.38;4899380;29;20040;-77
2022/08/11 06:25:34;;;;;;;8.27;3.00;;;;;;;17.93;100.00;157024.25;4890020;29;20139;-76
2022/08/11 06:28:04;;;;;;;7.60;3.10;;;;;;;18.13;100.00;157075.81;4914831;29;20087;-77
2022/08/11 06:30:42;;;;;;;10.40;2.85;;;;;;;18.31;100.00;157119.63;4929537;29;20044;-76
2022/08/11 06:33:11;;;;;;;7.75;2.83;;;;;;;18.40;100.00;157144.16;4895486;29;20042;-77
2022/08/11 06:35:50;;;;;;;9.32;2.67;;;;;;;18.64;99.85;157203.41;4899807;29;20036;-77
2022/08/11 06:38:32;;;;;;;7.65;3.03;;;;;;;18.83;98.33;157252.44;4913756;29;20032;-76
2022/08/11 06:44:11;;;;;;;8.18;2.83;;;;;;;19.26;95.51;157359.47;4898794;29;20154;-77
2022/08/11 06:46:39;;;;;;;4.85;2.60;;;;;;;19.31;93.08;157371.06;4907419;29;20037;-78
2022/08/11 06:51:10;;;;;;;10.50;2.47;;;;;;;19.39;92.63;157391.72;4914496;29;20529;-79
2022/08/11 06:52:08;;;;;;;6.47;2.40;;;;;;;19.52;91.39;157423.97;4914247;29;20047;-76
2022/08/11 06:54:40;;;;;;;6.03;2.20;;;;;;;19.67;88.75;157461.38;4896774;29;20033;-77
2022/08/11 07:02:51;;;;;;;10.90;2.08;;;;;;;20.12;86.20;157576.25;4899035;29;20407;-77
2022/08/11 07:05:27;;;;;;;3.95;2.17;;;;;;;20.31;83.96;157622.69;4916325;29;20114;-76
2022/08/11 07:16:50;;;;;;;4.10;2.10;;;;;;;20.67;83.00;157713.06;4914645;29;20032;-78
2022/08/11 07:30:38;;;;;;;4.72;2.08;;;;;;;21.33;79.65;157879.56;4904513;29;20073;-77
2022/08/11 07:33:05;;;;;;;4.20;2.03;;;;;;;21.46;79.92;157911.91;4926871;29;20040;-76
2022/08/11 07:35:41;;;;;;;6.15;2.00;;;;;;;21.53;78.31;157929.94;4906829;29;20033;-77
2022/08/11 07:38:17;;;;;;;5.70;1.88;;;;;;;21.61;78.94;157949.34;4915431;29;20032;-75
2022/08/11 07:40:45;;;;;;;6.32;2.03;;;;;;;21.69;78.47;157970.00;4899215;29;20080;-77
2022/08/11 07:43:11;;;;;;;6.60;1.77;;;;;;;21.67;78.12;157964.84;4912920;29;20035;-78
2022/08/11 07:54:04;;;;;;;10.25;2.30;;;;;;;22.27;75.25;158117.25;4911258;29;20113;-76
2022/08/11 07:56:35;;;;;;;6.82;2.13;;;;;;;22.38;75.20;158144.41;4908446;29;20052;-77
2022/08/11 08:18:23;;;;;;;5.72;1.83;;;;;;;23.21;74.33;158352.47;4911637;29;20031;-77
2022/08/11 08:20:50;;;;;;;3.33;1.70;;;;;;;23.33;69.32;158384.72;4912674;29;20174;-77
2022/08/11 08:23:31;;;;;;;2.83;1.58;;;;;;;23.47;68.14;158419.66;4929550;29;20564;-78
2022/08/11 08:26:01;;;;;;;3.37;1.63;;;;;;;23.51;66.04;158429.97;4906386;29;20418;-76
2022/08/11 08:28:28;;;;;;;6.05;1.65;;;;;;;23.69;68.12;158475.19;4914492;29;20069;-78
2022/08/11 08:30:55;;;;;;;4.35;2.03;;;;;;;23.92;62.87;158530.84;4901054;29;20200;-77
2022/08/11 08:33:29;;;;;;;3.40;1.48;;;;;;;24.12;63.01;158581.28;4913293;29;20098;-77
2022/08/11 08:36:11;;;;;;;2.95;1.75;;;;;;;24.25;60.94;158616.16;4912448;29;20086;-77
2022/08/11 08:38:42;;;;;;;4.38;1.70;;;;;;;24.32;62.08;158633.00;4926432;29;20042;-76
2022/08/11 08:41:08;;;;;;;5.72;2.00;;;;;;;24.58;60.87;158697.66;4916472;29;20031;-77
2022/08/11 08:43:36;;;;;;;6.88;1.80;;;;;;;24.64;61.62;158713.22;4916173;29;20036;-77
2022/08/11 08:46:07;;;;;;;3.00;1.55;;;;;;;24.70;59.54;158728.72;4912545;29;20032;-76
2022/08/11 08:48:34;;;;;;;2.72;1.63;;;;;;;24.66;61.15;158718.38;4913914;29;20602;-77
2022/08/11 08:53:53;;;;;;;3.40;1.73;;;;;;;25.12;58.35;158833.47;4901279;29;20095;-76
2022/08/11 08:56:26;;;;;;;4.25;1.95;;;;;;;25.26;58.75;158869.75;4893167;29;20043;-76
2022/08/11 08:58:52;;;;;;;6.30;1.63;;;;;;;25.28;57.94;158873.59;4911056;29;20032;-77
2022/08/11 09:01:21;;;;;;;3.80;1.90;;;;;;;25.38;58.73;158900.78;4912654;29;20051;-76
2022/08/11 09:03:47;;;;;;;2.15;1.45;;;;;;;25.50;56.29;158929.22;4913038;29;20051;-77
2022/08/11 09:06:17;;;;;;;5.97;1.70;;;;;;;25.68;57.78;158974.53;4892549;29;20122;-77
2022/08/11 09:08:44;;;;;;;2.05;1.55;;;;;;;25.85;55.68;159018.50;4905856;29;20175;-76
2022/08/11 09:13:58;;;;;;;6.05;1.77;;;;;;;25.83;54.48;159013.34;4913191;29;20506;-77
2022/08/11 09:16:23;;;;;;;3.47;1.90;;;;;;;25.89;55.18;159028.84;4918009;29;20079;-77
2022/08/11 09:18:50;;;;;;;1.80;1.25;;;;;;;25.95;55.84;159043.13;4921351;29;20044;-76
2022/08/11 09:21:21;;;;;;;4.63;1.55;;;;;;;26.22;55.92;159113.03;4915262;29;20040;-77
2022/08/11 09:29:32;;;;;;;4.55;1.83;;;;;;;26.59;51.74;159204.91;4922073;29;20103;-76
2022/08/11 09:31:58;;;;;;;5.32;1.35;;;;;;;26.42;51.66;159162.19;4898515;29;20139;-76
2022/08/11 09:34:25;;;;;;;2.25;1.30;;;;;;;26.49;50.34;159180.31;4909643;29;20405;-76
2022/08/11 09:44:45;;;;;;;4.35;1.42;;;;;;;26.82;49.33;159263.19;4896927;29;20150;-76
2022/08/11 09:45:11;;;;;;;5.25;1.33;;;;;;;26.93;48.01;159290.38;4912301;29;20036;-77
2022/08/11 09:47:38;;;;;;;3.50;1.02;;;;;;;27.06;48.11;159324.03;4911754;29;20028;-78
2022/08/11 09:50:05;;;;;;;6.28;1.45;;;;;;;27.11;46.74;159335.72;4895498;29;20071;-78
2022/08/11 09:52:39;;;;;;;2.20;1.23;;;;;;;27.03;47.22;159314.97;4911770;29;20036;-78
2022/08/11 09:55:09;;;;;;;5.15;1.42;;;;;;;27.08;46.54;159327.94;4891860;29;20417;-77
2022/08/11 10:00:30;;;;;;;2.40;1.30;;;;;;;27.32;47.27;159388.84;4899407;29;20107;-77
2022/08/11 10:03:00;;;;;;;2.05;1.20;;;;;;;27.35;48.05;159396.56;4900246;29;20750;-77
2022/08/11 10:08:13;;;;;;;10.23;1.63;;;;;;;27.79;46.08;159506.69;4913174;29;20028;-77
2022/08/11 10:10:39;;;;;;;2.72;1.23;;;;;;;27.88;47.10;159531.28;4914381;29;20770;-78
2022/08/11 10:13:14;;;;;;;2.13;1.30;;;;;;;27.98;46.26;159554.66;4915129;29;20043;-77
2022/08/11 10:15:44;;;;;;;1.80;1.17;;;;;;;28.06;46.46;159576.63;4931312;29;20051;-78
2022/08/11 10:21:01;;;;;;;6.20;1.58;;;;;;;28.08;46.10;159581.81;4916406;29;20036;-78
2022/08/11 10:27:03;;;;;;;1.63;1.00;;;;;;;28.13;45.08;159593.50;4914878;29;20036;-78
2022/08/11 10:33:58;;;;;;;4.03;1.40;;;;;;;28.10;44.78;159585.72;4917702;29;20056;-77
2022/08/11 10:34:39;;;;;;;3.15;1.00;;;;;;;28.36;43.41;159651.78;4912089;29;20515;-78
2022/08/11 10:37:05;;;;;;;3.40;1.23;;;;;;;28.24;41.19;159620.72;4914674;29;20434;-77
2022/08/11 10:39:31;;;;;;;3.80;1.10;;;;;;;28.23;41.82;159619.38;4915018;29;20040;-78
2022/08/11 10:44:46;;;;;;;3.13;1.20;;;;;;;28.55;41.61;159699.75;4895960;29;20048;-77
2022/08/11 11:01:02;;;;;;;3.05;1.10;;;;;;;28.67;38.83;159730.88;4910730;29;20095;-77
2022/08/11 11:03:29;;;;;;;2.08;1.00;;;;;;;28.91;39.28;159791.78;4914013;29;20064;-76
2022/08/11 11:06:03;;;;;;;7.90;1.42;;;;;;;29.08;38.99;159833.19;4909447;29;20082;-77
2022/08/11 11:20:02;;;;;;;4.50;1.05;;;;;;;29.78;39.83;160010.88;4915946;29;20034;-74
2022/08/11 11:22:38;;;;;;;3.33;1.08;;;;;;;29.81;36.59;160018.63;4896652;29;20603;-76
2022/08/11 11:25:20;;;;;;;2.33;1.20;;;;;;;29.59;36.72;159962.88;4911689;29;20538;-76
2022/08/11 11:28:05;;;;;;;2.45;0.88;;;;;;;29.66;38.29;159979.69;4918802;29;20550;-77
2022/08/11 11:30:51;;;;;;;2.25;0.85;;;;;;;29.84;36.95;160026.41;4908372;29;20156;-76
2022/08/11 11:33:47;;;;;;;3.33;1.02;;;;;;;29.77;36.37;160006.97;4913680;29;20570;-78
2022/08/11 11:36:43;;;;;;;5.68;1.08;;;;;;;29.45;36.87;159927.84;4908804;29;20119;-76
2022/08/11 11:39:09;;;;;;;1.13;0.80;;;;;;;29.67;35.92;159982.31;4916541;29;20329;-77
2022/08/11 11:41:35;;;;;;;1.98;0.90;;;;;;;29.63;35.36;159973.25;4914954;29;20035;-77
2022/08/11 11:44:01;;;;;;;4.15;0.95;;;;;;;29.83;37.60;160023.81;4914228;29;20498;-77
2022/08/11 11:46:30;;;;;;;1.73;0.90;;;;;;;29.96;37.08;160054.94;4914560;29;20039;-77
2022/08/11 11:48:57;;;;;;;2.10;0.75;;;;;;;30.18;36.88;160110.69;4911341;29;20427;-77
2022/08/11 11:51:25;;;;;;;2.40;0.80;;;;;;;30.42;34.86;160172.97;4898065;29;20068;-78
2022/08/11 11:53:52;;;;;;;4.47;1.00;;;;;;;30.27;34.27;160133.97;4898668;29;20039;-78
2022/08/11 11:56:21;;;;;;;4.40;1.00;;;;;;;30.16;34.20;160105.47;4913367;29;20554;-78
2022/08/11 12:01:32;;;;;;;3.17;0.93;;;;;;;30.26;34.11;160132.69;4913753;29;20095;-78
2022/08/11 12:03:59;;;;;;;4.38;0.95;;;;;;;30.24;36.14;160127.50;4912529;29;20383;-78
2022/08/11 12:06:26;;;;;;;3.40;0.80;;;;;;;30.13;33.67;160097.72;4930058;29;20035;-77
2022/08/11 12:08:57;;;;;;;1.48;0.90;;;;;;;30.32;35.78;160145.69;4898157;29;20447;-76
2022/08/11 12:14:11;;;;;;;7.03;0.90;;;;;;;30.25;35.04;160128.81;4912626;29;20040;-78
2022/08/11 12:16:39;;;;;;;2.63;0.80;;;;;;;30.60;34.94;160217.03;4917338;29;20040;-77
2022/08/11 12:19:17;;;;;;;1.13;0.80;;;;;;;30.49;33.86;160188.50;4911908;29;20032;-79
2022/08/11 12:27:19;;;;;;;2.05;0.90;;;;;;;30.33;33.23;160148.28;4896009;29;20035;-77
2022/08/11 12:29:59;;;;;;;6.88;1.23;;;;;;;30.30;32.10;160140.50;4912074;29;20044;-78
2022/08/11 12:32:28;;;;;;;2.38;1.20;;;;;;;30.25;32.55;160128.81;4897509;29;20032;-78
2022/08/11 12:34:56;;;;;;;2.20;0.82;;;;;;;30.37;32.51;160158.72;4913281;29;20127;-77
2022/08/11 12:37:50;;;;;;;1.10;0.70;;;;;;;30.56;31.86;160206.66;4914503;29;20028;-79
2022/08/11 12:46:01;;;;;;;2.50;0.75;;;;;;;31.23;32.10;160377.91;4907028;29;20119;-77
2022/08/11 12:54:33;;;;;;;2.88;0.82;;;;;;;31.60;30.79;160471.31;4913051;29;20076;-76
2022/08/11 13:05:24;;;;;;;3.10;0.80;;;;;;;32.26;29.79;160637.41;4894388;29;20086;-78
2022/08/11 13:07:51;;;;;;;2.10;0.77;;;;;;;32.29;30.47;160643.94;4912265;29;20080;-76
2022/08/11 13:12:46;;;;;;;2.95;1.00;;;;;;;32.58;30.05;160719.19;4908637;29;20059;-77
2022/08/11 13:13:06;;;;;;;4.40;1.00;;;;;;;32.71;29.61;160751.66;4909100;29;20072;-79
2022/08/11 13:15:35;;;;;;;2.90;0.90;;;;;;;32.33;29.92;160655.59;4893499;29;20032;-77
2022/08/11 13:18:02;;;;;;;5.22;0.82;;;;;;;32.80;29.94;160772.44;4896493;29;20418;-77
2022/08/11 13:20:28;;;;;;;3.90;0.90;;;;;;;32.55;30.12;160710.06;4924415;29;20040;-77
2022/08/11 13:22:57;;;;;;;3.17;0.70;;;;;;;32.56;29.94;160713.97;4912927;29;20047;-77
2022/08/11 13:25:25;;;;;;;3.67;0.80;;;;;;;32.47;29.98;160689.31;4912367;29;20042;-77
2022/08/11 13:27:55;;;;;;;0.70;0.60;;;;;;;33.04;28.09;160834.75;4895776;29;20126;-77
2022/08/11 13:33:11;;;;;;;2.35;0.73;;;;;;;32.95;28.72;160812.66;4912235;29;20418;-77
2022/08/11 13:35:37;;;;;;;4.40;0.75;;;;;;;32.70;30.95;160747.75;4913676;29;20410;-78
2022/08/11 13:38:04;;;;;;;2.25;0.80;;;;;;;33.52;29.07;160956.78;4896216;29;20503;-78
2022/08/11 13:40:31;;;;;;;2.28;0.70;;;;;;;33.67;26.90;160994.47;4893373;29;20040;-78
2022/08/11 13:42:58;;;;;;;1.70;0.88;;;;;;;33.44;25.87;160934.72;4912770;29;20143;-76
2022/08/11 13:45:25;;;;;;;5.22;0.60;;;;;;;33.72;26.83;161007.47;4912975;29;20115;-78
2022/08/11 13:47:53;;;;;;;1.80;0.60;;;;;;;33.42;26.53;160929.50;4912287;29;20032;-78
2022/08/11 13:50:20;;;;;;;2.42;0.80;;;;;;;34.18;26.44;161121.78;4900199;29;20126;-78
2022/08/11 13:52:48;;;;;;;3.78;0.70;;;;;;;33.87;25.75;161045.13;4897047;29;20072;-78
2022/08/11 13:55:20;;;;;;;2.38;0.60;;;;;;;34.02;27.32;161082.78;4898286;29;20067;-78
2022/08/11 13:57:52;;;;;;;3.17;0.80;;;;;;;33.82;26.88;161030.84;4910034;29;20040;-79
2022/08/11 14:00:19;;;;;;;2.55;0.80;;;;;;;34.31;25.59;161155.53;4911731;29;20047;-77
2022/08/11 14:02:48;;;;;;;3.83;0.80;;;;;;;34.06;24.33;161091.88;4897631;29;20039;-78
2022/08/11 14:05:17;;;;;;;0.93;0.70;;;;;;;33.81;26.23;161029.50;4912485;29;20393;-78
2022/08/11 14:07:49;;;;;;;4.07;0.80;;;;;;;34.42;26.68;161182.81;4911722;29;20068;-78
2022/08/11 14:10:18;;;;;;;4.25;0.98;;;;;;;34.22;26.77;161132.16;4909175;29;20036;-78
2022/08/11 14:15:35;;;;;;;3.45;0.65;;;;;;;34.19;24.63;161124.34;4923112;29;20115;-78
2022/08/11 14:18:08;;;;;;;3.38;0.60;;;;;;;33.84;25.29;161036.03;4912777;29;20165;-78
2022/08/11 14:23:46;;;;;;;2.42;0.60;;;;;;;34.93;25.90;161311.44;4838498;29;20042;-77
2022/08/11 14:26:25;;;;;;;2.88;0.57;;;;;;;35.08;24.68;161350.38;4850006;29;20100;-77
2022/08/11 14:29:01;;;;;;;3.65;0.80;;;;;;;34.95;25.65;161316.63;4885351;29;20131;-78
2022/08/11 14:31:29;;;;;;;2.35;0.70;;;;;;;34.88;23.97;161299.72;4903933;29;20514;-76
2022/08/11 14:33:56;;;;;;;2.92;0.82;;;;;;;34.63;26.30;161237.34;4908825;29;20071;-78
2022/08/11 14:36:25;;;;;;;2.38;0.60;;;;;;;34.23;28.74;161134.78;4894030;29;20126;-76
2022/08/11 14:38:52;;;;;;;3.95;0.77;;;;;;;34.87;26.96;161297.16;4912478;29;20029;-77
2022/08/11 14:47:04;;;;;;;3.67;0.80;;;;;;;34.40;25.59;161178.91;4931315;29;20036;-78
2022/08/11 14:49:33;;;;;;;1.50;0.60;;;;;;;34.75;25.89;161267.25;4933465;29;20040;-78
2022/08/11 14:52:00;;;;;;;6.15;0.98;;;;;;;34.93;27.19;161311.44;4917057;29;20031;-77
2022/08/11 14:57:17;;;;;;;0.95;0.70;;;;;;;34.22;26.25;161132.16;4919533;29;20032;-79
2022/08/11 14:59:47;;;;;;;3.20;0.60;;;;;;;34.59;25.50;161225.66;4922744;29;20048;-77
2022/08/11 15:05:00;;;;;;;1.48;0.82;;;;;;;34.47;27.04;161197.09;4917720;29;20502;-78
2022/08/11 15:07:30;;;;;;;3.15;0.95;;;;;;;33.64;29.64;160986.66;4921154;29;20040;-77
2022/08/11 15:10:02;;;;;;;5.45;0.80;;;;;;;32.92;30.17;160803.56;4920350;29;20032;-78
2022/08/11 15:12:30;;;;;;;2.75;0.82;;;;;;;32.40;31.59;160673.75;4910672;29;20117;-78
2022/08/11 15:17:43;;;;;;;4.10;0.70;;;;;;;31.88;33.07;160540.09;4893592;29;20452;-78
2022/08/11 15:25:54;;;;;;;3.28;1.10;;;;;;;30.92;32.79;160298.78;4895358;29;20115;-76
2022/08/11 15:45:47;;;;;;;2.05;1.08;;;;;;;29.65;40.09;159978.41;4912170;29;20054;-76
2022/08/11 15:48:19;;;;;;;3.22;0.70;;;;;;;29.16;38.55;159854.00;4913492;29;20029;-78
2022/08/11 15:50:50;;;;;;;2.05;0.80;;;;;;;28.82;39.08;159768.44;4913829;29;20477;-77
2022/08/11 15:53:32;;;;;;;4.10;1.02;;;;;;;28.56;39.95;159702.38;4906529;29;20442;-77
2022/08/11 15:55:59;;;;;;;5.40;1.00;;;;;;;28.30;41.29;159636.25;4914175;29;20119;-78
2022/08/11 16:04:11;;;;;;;1.45;0.95;;;;;;;28.24;41.33;159620.72;4910178;29;20131;-76
2022/08/11 16:06:40;;;;;;;3.30;1.40;;;;;;;28.14;42.66;159596.06;4915011;29;20072;-77
2022/08/11 16:09:08;;;;;;;4.10;1.10;;;;;;;27.95;41.02;159549.47;4893587;29;20132;-76
2022/08/11 16:11:35;;;;;;;5.03;1.45;;;;;;;27.69;43.05;159483.38;4898044;29;20043;-76
2022/08/11 16:16:50;;;;;;;7.80;1.13;;;;;;;27.54;42.90;159444.53;4908213;29;20043;-76
2022/08/11 16:19:18;;;;;;;5.40;1.27;;;;;;;27.40;42.69;159408.25;4911953;29;20035;-78
2022/08/11 16:21:49;;;;;;;4.70;0.80;;;;;;;27.29;42.50;159381.06;4911111;29;20029;-76
2022/08/11 16:24:18;;;;;;;1.48;0.80;;;;;;;27.27;42.19;159377.16;4907762;29;20083;-77
2022/08/11 16:26:45;;;;;;;2.80;0.90;;;;;;;27.09;45.14;159331.81;4895660;29;20104;-77
2022/08/11 16:29:12;;;;;;;8.45;1.10;;;;;;;27.01;45.67;159311.09;4928785;29;20032;-79
2022/08/11 16:31:40;;;;;;;4.78;0.80;;;;;;;26.91;45.36;159285.22;4912677;29;20095;-78
2022/08/11 16:38:33;;;;;;;1.77;0.77;;;;;;;26.76;44.28;159248.94;4890514;29;20034;-77
2022/08/11 16:39:42;;;;;;;2.30;1.05;;;;;;;26.63;43.74;159214.03;4909187;29;20171;-76
2022/08/11 16:47:44;;;;;;;5.95;1.00;;;;;;;26.51;44.38;159184.22;4893411;29;20055;-77
2022/08/11 16:50:10;;;;;;;6.57;1.00;;;;;;;26.40;44.29;159158.31;4909074;29;20115;-77
2022/08/11 16:52:36;;;;;;;5.05;1.10;;;;;;;26.39;44.77;159155.75;4911214;29;20039;-76
2022/08/11 16:55:02;;;;;;;2.65;0.95;;;;;;;26.33;45.89;159138.88;4899828;29;20815;-76
2022/08/11 17:00:16;;;;;;;1.25;0.70;;;;;;;26.09;45.93;159079.38;4911233;29;20050;-78